Time;durP1;ratioP1;P1;durP2;ratioP2;P2;SDS_P1;SDS_P2;PMS_P1;PMS_P2;Temp;Humidity;BMP_temperature;BMP_pressure;BME280_temperature;BME280_humidity;BME280_pressure;Samples;Min_cycle;Max_cycle;Signal;HPM_P1;HPM_P2
2022/06/27 00:00:31;;;;;;;9.35;6.55;;;;;;;;;;5111683;28;20031;-64
2022/06/27 00:02:57;;;;;;;9.63;6.82;;;;;;;;;;5110440;28;20072;-64
2022/06/27 00:05:23;;;;;;;7.72;6.57;;;;;;;;;;5111609;28;20088;-64
2022/06/27 00:07:49;;;;;;;8.52;7.07;;;;;;;;;;5117149;28;20062;-64
2022/06/27 00:10:15;;;;;;;8.43;6.93;;;;;;;;;;5107688;28;20047;-64
2022/06/27 00:12:41;;;;;;;7.80;7.00;;;;;;;;;;5114796;28;20035;-64
2022/06/27 00:15:08;;;;;;;10.07;6.95;;;;;;;;;;5114244;28;20044;-63
2022/06/27 00:17:34;;;;;;;10.82;7.15;;;;;;;;;;5108317;28;20690;-64
2022/06/27 00:20:00;;;;;;;10.68;7.15;;;;;;;;;;5109720;28;20526;-64
2022/06/27 00:22:27;;;;;;;8.90;6.50;;;;;;;;;;5111364;28;20047;-64
2022/06/27 00:24:53;;;;;;;9.68;7.45;;;;;;;;;;5108632;28;20032;-64
2022/06/27 00:27:20;;;;;;;8.15;6.75;;;;;;;;;;5111340;28;20031;-64
2022/06/27 00:29:46;;;;;;;11.18;7.65;;;;;;;;;;5113867;28;20035;-64
2022/06/27 00:32:12;;;;;;;10.00;7.38;;;;;;;;;;5113228;27;20070;-64
2022/06/27 00:34:38;;;;;;;9.10;7.40;;;;;;;;;;5116978;27;20448;-64
2022/06/27 00:37:04;;;;;;;12.35;7.13;;;;;;;;;;5126214;27;20050;-64
2022/06/27 00:39:31;;;;;;;8.93;6.80;;;;;;;;;;5115195;27;20500;-64
2022/06/27 00:41:57;;;;;;;10.27;7.70;;;;;;;;;;5107138;28;20036;-64
2022/06/27 00:44:32;;;;;;;11.55;8.10;;;;;;;;;;5120518;27;20039;-64
2022/06/27 00:46:58;;;;;;;8.95;7.05;;;;;;;;;;5108826;28;20059;-64
2022/06/27 00:49:25;;;;;;;10.52;8.38;;;;;;;;;;5111905;28;20401;-64
2022/06/27 00:51:51;;;;;;;9.80;8.25;;;;;;;;;;5114580;28;20040;-64
2022/06/27 00:54:17;;;;;;;11.10;8.20;;;;;;;;;;5113818;28;20039;-64
2022/06/27 00:56:43;;;;;;;11.15;8.63;;;;;;;;;;5110272;28;20469;-64
2022/06/27 00:59:09;;;;;;;8.93;7.93;;;;;;;;;;5112644;28;20043;-64
2022/06/27 01:01:35;;;;;;;10.95;8.02;;;;;;;;;;5104303;28;20085;-64
2022/06/27 01:04:01;;;;;;;9.48;7.85;;;;;;;;;;5117939;27;20040;-64
2022/06/27 01:06:28;;;;;;;11.52;8.02;;;;;;;;;;5112843;27;20036;-64
2022/06/27 01:08:54;;;;;;;9.05;8.10;;;;;;;;;;5113366;28;20032;-64
2022/06/27 01:11:21;;;;;;;9.95;7.82;;;;;;;;;;5112740;28;20707;-64
2022/06/27 01:13:47;;;;;;;9.48;7.90;;;;;;;;;;5112121;28;20100;-64
2022/06/27 01:16:14;;;;;;;10.13;7.93;;;;;;;;;;5112457;27;20031;-64
2022/06/27 01:18:40;;;;;;;11.85;8.43;;;;;;;;;;5121051;27;20039;-64
2022/06/27 01:21:11;;;;;;;12.15;7.82;;;;;;;;;;5110411;28;20031;-64
2022/06/27 01:23:37;;;;;;;11.00;9.02;;;;;;;;;;5103554;28;20477;-64
2022/06/27 01:26:03;;;;;;;10.95;8.75;;;;;;;;;;5106963;28;20031;-64
2022/06/27 01:28:30;;;;;;;12.18;8.35;;;;;;;;;;5112401;28;20413;-64
2022/06/27 01:30:56;;;;;;;11.27;8.45;;;;;;;;;;5112934;28;20047;-64
2022/06/27 01:33:22;;;;;;;11.77;8.80;;;;;;;;;;5112934;27;20043;-64
2022/06/27 01:36:41;;;;;;;10.25;8.45;;;;;;;;;;5117168;27;20032;-64
2022/06/27 01:38:34;;;;;;;10.82;8.60;;;;;;;;;;5113100;27;20047;-64
2022/06/27 01:41:00;;;;;;;10.02;8.40;;;;;;;;;;5111344;28;20127;-64
2022/06/27 01:43:26;;;;;;;11.02;7.70;;;;;;;;;;5113043;28;20396;-64
2022/06/27 01:45:52;;;;;;;10.30;7.85;;;;;;;;;;5110202;28;20484;-65
2022/06/27 01:48:18;;;;;;;9.45;8.25;;;;;;;;;;5112702;28;20070;-65
2022/06/27 01:50:46;;;;;;;10.25;7.88;;;;;;;;;;5112132;28;20039;-65
2022/06/27 01:53:13;;;;;;;9.57;8.02;;;;;;;;;;5109271;28;20067;-64
2022/06/27 01:55:39;;;;;;;10.82;8.30;;;;;;;;;;5108449;28;20488;-65
2022/06/27 01:58:05;;;;;;;11.07;8.65;;;;;;;;;;5112054;28;20067;-64
2022/06/27 02:00:31;;;;;;;10.07;7.50;;;;;;;;;;5110628;28;20078;-64
2022/06/27 02:02:57;;;;;;;11.65;8.27;;;;;;;;;;5112141;28;20035;-64
2022/06/27 02:05:23;;;;;;;11.10;7.65;;;;;;;;;;5105405;28;20040;-64
2022/06/27 02:07:50;;;;;;;11.40;8.20;;;;;;;;;;5111619;28;20092;-65
2022/06/27 02:10:17;;;;;;;10.02;7.90;;;;;;;;;;5114929;27;20040;-65
2022/06/27 02:12:43;;;;;;;10.60;7.80;;;;;;;;;;5109102;28;20031;-64
2022/06/27 02:15:09;;;;;;;11.35;8.32;;;;;;;;;;5112343;28;20077;-64
2022/06/27 02:17:36;;;;;;;9.88;8.50;;;;;;;;;;5102999;28;20505;-64
2022/06/27 02:20:02;;;;;;;13.20;7.95;;;;;;;;;;5110626;27;20039;-64
2022/06/27 02:22:29;;;;;;;11.10;8.10;;;;;;;;;;5118575;27;20036;-65
2022/06/27 02:24:55;;;;;;;10.35;8.30;;;;;;;;;;5111938;28;20453;-64
2022/06/27 02:27:21;;;;;;;12.52;8.63;;;;;;;;;;5110710;28;20075;-65
2022/06/27 02:29:47;;;;;;;10.10;8.38;;;;;;;;;;5109550;28;20632;-65
2022/06/27 02:32:15;;;;;;;10.23;9.13;;;;;;;;;;5112288;28;20035;-64
2022/06/27 02:34:42;;;;;;;10.40;9.05;;;;;;;;;;5110309;28;20103;-64
2022/06/27 02:37:09;;;;;;;11.43;8.73;;;;;;;;;;5108232;28;20039;-64
2022/06/27 02:39:36;;;;;;;10.30;8.32;;;;;;;;;;5112124;28;20032;-64
2022/06/27 02:42:03;;;;;;;11.50;8.95;;;;;;;;;;5109473;28;20047;-64
2022/06/27 02:44:31;;;;;;;13.48;9.18;;;;;;;;;;5108608;28;20032;-65
2022/06/27 02:46:57;;;;;;;10.35;9.13;;;;;;;;;;5110927;28;20036;-65
2022/06/27 02:49:23;;;;;;;11.95;9.27;;;;;;;;;;5110660;27;20071;-64
2022/06/27 02:52:01;;;;;;;12.40;9.65;;;;;;;;;;5108459;27;20047;-65
2022/06/27 02:54:39;;;;;;;12.00;8.52;;;;;;;;;;5110529;28;20062;-65
2022/06/27 02:57:08;;;;;;;12.18;9.48;;;;;;;;;;5109699;28;20063;-64
2022/06/27 02:59:38;;;;;;;11.57;9.50;;;;;;;;;;5111276;28;20428;-64
2022/06/27 03:02:08;;;;;;;10.47;8.83;;;;;;;;;;5111635;28;20039;-64
2022/06/27 03:04:34;;;;;;;10.70;9.60;;;;;;;;;;5108422;28;20289;-64
2022/06/27 03:07:00;;;;;;;10.50;9.45;;;;;;;;;;5106271;28;20032;-64
2022/06/27 03:09:26;;;;;;;11.27;9.77;;;;;;;;;;5111861;28;20126;-65
2022/06/27 03:11:52;;;;;;;12.32;9.95;;;;;;;;;;5113576;27;20039;-65
2022/06/27 03:14:18;;;;;;;13.82;11.15;;;;;;;;;;5093253;28;20039;-65
2022/06/27 03:16:44;;;;;;;15.75;12.07;;;;;;;;;;5118865;28;20039;-65
2022/06/27 03:19:11;;;;;;;15.32;11.05;;;;;;;;;;5111475;28;20043;-65
2022/06/27 03:21:38;;;;;;;12.05;9.48;;;;;;;;;;5105416;28;20115;-64
2022/06/27 03:24:04;;;;;;;9.73;7.05;;;;;;;;;;5109057;28;20400;-64
2022/06/27 03:26:30;;;;;;;8.55;6.93;;;;;;;;;;5090575;28;20047;-65
2022/06/27 03:28:56;;;;;;;9.82;6.43;;;;;;;;;;5111670;28;20040;-65
2022/06/27 03:31:22;;;;;;;9.73;7.00;;;;;;;;;;5111181;28;20053;-65
2022/06/27 03:33:50;;;;;;;8.20;7.32;;;;;;;;;;5111518;28;20071;-65
2022/06/27 03:36:16;;;;;;;8.63;7.72;;;;;;;;;;5108905;28;20415;-65
2022/06/27 03:38:42;;;;;;;7.03;6.22;;;;;;;;;;5110362;28;20036;-65
2022/06/27 03:41:08;;;;;;;7.72;5.85;;;;;;;;;;5110474;28;20028;-65
2022/06/27 03:43:34;;;;;;;7.82;4.88;;;;;;;;;;5111338;28;20043;-65
2022/06/27 03:46:00;;;;;;;6.57;5.57;;;;;;;;;;5101905;28;20119;-65
2022/06/27 03:51:12;;;;;;;6.88;5.30;;;;;;;;;;5107002;28;20122;-64
2022/06/27 03:53:38;;;;;;;7.03;5.53;;;;;;;;;;5109694;28;20386;-64
2022/06/27 03:56:04;;;;;;;6.85;5.47;;;;;;;;;;5102715;28;20036;-64
2022/06/27 03:58:30;;;;;;;8.02;6.35;;;;;;;;;;5092920;28;20054;-65
2022/06/27 04:00:56;;;;;;;7.28;6.57;;;;;;;;;;5108111;28;20040;-65
2022/06/27 04:03:22;;;;;;;10.88;7.43;;;;;;;;;;5113163;27;20047;-65
2022/06/27 04:05:48;;;;;;;11.82;8.13;;;;;;;;;;5116907;27;20173;-65
2022/06/27 04:08:14;;;;;;;10.68;7.90;;;;;;;;;;5109872;28;20107;-65
2022/06/27 04:10:40;;;;;;;10.05;8.05;;;;;;;;;;5106944;27;20120;-66
2022/06/27 04:13:06;;;;;;;9.98;7.85;;;;;;;;;;5110978;28;20036;-65
2022/06/27 04:15:32;;;;;;;7.78;6.20;;;;;;;;;;5110271;28;20478;-65
2022/06/27 04:17:58;;;;;;;7.00;5.82;;;;;;;;;;5128453;22;20031;-65
2022/06/27 04:20:24;;;;;;;9.20;6.53;;;;;;;;;;5132067;27;20393;-64
2022/06/27 04:22:51;;;;;;;7.60;5.90;;;;;;;;;;5134524;27;20031;-64
2022/06/27 04:25:17;;;;;;;6.47;5.40;;;;;;;;;;5132673;27;20125;-64
2022/06/27 04:27:43;;;;;;;6.38;4.75;;;;;;;;;;5135419;27;20035;-64
2022/06/27 04:30:16;;;;;;;5.75;5.07;;;;;;;;;;5136902;27;20123;-64
2022/06/27 04:32:42;;;;;;;5.60;4.40;;;;;;;;;;5148080;27;20114;-64
2022/06/27 04:35:08;;;;;;;7.60;4.63;;;;;;;;;;5141340;27;20068;-64
2022/06/27 04:37:34;;;;;;;7.00;4.60;;;;;;;;;;5154654;27;20084;-64
2022/06/27 04:40:00;;;;;;;5.55;4.85;;;;;;;;;;5151531;27;20042;-64
2022/06/27 04:42:26;;;;;;;6.43;5.10;;;;;;;;;;5145486;27;20043;-64
2022/06/27 04:44:53;;;;;;;7.07;5.47;;;;;;;;;;5155774;27;20101;-64
2022/06/27 04:47:20;;;;;;;6.75;5.75;;;;;;;;;;5155219;27;20038;-64
2022/06/27 04:49:46;;;;;;;6.60;5.90;;;;;;;;;;5153814;27;20429;-64
2022/06/27 04:52:12;;;;;;;7.70;5.82;;;;;;;;;;5154095;27;21323;-64
2022/06/27 04:54:38;;;;;;;7.65;5.78;;;;;;;;;;5150315;27;20038;-64
2022/06/27 04:57:05;;;;;;;6.65;5.95;;;;;;;;;;5148935;27;20561;-64
2022/06/27 04:59:32;;;;;;;7.63;5.72;;;;;;;;;;5154125;27;20046;-64
2022/06/27 05:01:58;;;;;;;5.82;5.03;;;;;;;;;;5151610;27;20042;-64
2022/06/27 05:04:24;;;;;;;5.97;5.20;;;;;;;;;;5146706;27;20118;-64
2022/06/27 05:06:50;;;;;;;5.18;4.55;;;;;;;;;;5147114;27;20043;-64
2022/06/27 05:09:16;;;;;;;6.68;5.28;;;;;;;;;;5144318;27;20524;-64
2022/06/27 05:11:45;;;;;;;5.63;4.95;;;;;;;;;;5147250;27;20038;-64
2022/06/27 05:14:11;;;;;;;6.47;4.53;;;;;;;;;;5153233;27;20039;-64
2022/06/27 05:16:38;;;;;;;5.30;4.65;;;;;;;;;;5143305;27;20392;-64
2022/06/27 05:19:04;;;;;;;6.50;5.10;;;;;;;;;;5153436;27;20043;-64
2022/06/27 05:21:30;;;;;;;6.25;5.53;;;;;;;;;;5146705;27;20132;-64
2022/06/27 05:23:56;;;;;;;6.43;5.15;;;;;;;;;;5149339;27;20168;-64
2022/06/27 05:26:22;;;;;;;6.18;4.85;;;;;;;;;;5154969;27;20112;-64
2022/06/27 05:28:48;;;;;;;8.00;4.90;;;;;;;;;;5153759;27;20026;-64
2022/06/27 05:31:14;;;;;;;7.82;4.68;;;;;;;;;;5149800;27;20053;-64
2022/06/27 05:33:40;;;;;;;7.68;4.78;;;;;;;;;;5149363;27;20035;-63
2022/06/27 05:36:07;;;;;;;5.47;4.38;;;;;;;;;;5144052;27;20035;-64
2022/06/27 05:38:33;;;;;;;4.32;3.90;;;;;;;;;;5147741;27;20060;-64
2022/06/27 05:40:59;;;;;;;4.40;3.78;;;;;;;;;;5153355;27;20067;-64
2022/06/27 05:43:26;;;;;;;3.92;3.42;;;;;;;;;;5150410;27;20035;-64
2022/06/27 05:45:53;;;;;;;4.15;3.58;;;;;;;;;;5145805;27;20046;-64
2022/06/27 05:48:20;;;;;;;3.83;3.42;;;;;;;;;;5154317;27;20084;-64
2022/06/27 05:50:46;;;;;;;5.28;3.80;;;;;;;;;;5148734;27;20511;-64
2022/06/27 05:53:12;;;;;;;4.28;3.42;;;;;;;;;;5142470;27;20041;-64
2022/06/27 05:55:40;;;;;;;5.53;3.63;;;;;;;;;;5140233;27;20038;-64
2022/06/27 05:58:08;;;;;;;4.80;4.30;;;;;;;;;;5152851;27;20065;-64
2022/06/27 06:00:34;;;;;;;6.00;3.90;;;;;;;;;;5139203;27;20035;-64
2022/06/27 06:03:00;;;;;;;4.78;3.60;;;;;;;;;;5146916;27;20042;-64
2022/06/27 06:05:28;;;;;;;4.57;3.70;;;;;;;;;;5149408;27;20039;-64
2022/06/27 06:07:54;;;;;;;6.00;4.30;;;;;;;;;;5139538;27;20039;-64
2022/06/27 06:10:21;;;;;;;5.03;4.55;;;;;;;;;;5141215;27;20054;-64
2022/06/27 06:12:49;;;;;;;4.63;4.18;;;;;;;;;;5142279;27;20114;-63
2022/06/27 06:15:15;;;;;;;4.28;3.88;;;;;;;;;;5146911;27;20143;-64
2022/06/27 06:17:42;;;;;;;5.20;3.92;;;;;;;;;;5149811;27;20074;-63
2022/06/27 06:20:09;;;;;;;4.85;4.10;;;;;;;;;;5151595;27;20091;-64
2022/06/27 06:22:35;;;;;;;4.25;3.85;;;;;;;;;;5147363;27;20042;-64
2022/06/27 06:25:01;;;;;;;6.75;4.18;;;;;;;;;;5142812;27;20464;-64
2022/06/27 06:27:29;;;;;;;6.45;4.40;;;;;;;;;;5147258;27;20035;-64
2022/06/27 06:29:55;;;;;;;4.85;4.35;;;;;;;;;;5139709;27;20043;-63
2022/06/27 06:32:21;;;;;;;5.57;4.50;;;;;;;;;;5134909;27;20030;-64
2022/06/27 06:34:48;;;;;;;5.97;4.97;;;;;;;;;;5140232;27;20039;-64
2022/06/27 06:37:14;;;;;;;5.82;5.13;;;;;;;;;;5140496;27;20126;-64
2022/06/27 06:39:40;;;;;;;6.35;5.20;;;;;;;;;;5135730;27;20475;-63
2022/06/27 06:42:06;;;;;;;7.35;5.47;;;;;;;;;;5151584;27;20042;-64
2022/06/27 06:44:33;;;;;;;6.00;4.85;;;;;;;;;;5139852;27;20114;-63
2022/06/27 06:46:59;;;;;;;6.50;5.30;;;;;;;;;;5139486;27;20561;-64
2022/06/27 06:49:25;;;;;;;6.07;5.00;;;;;;;;;;5142529;27;20132;-64
2022/06/27 06:51:52;;;;;;;5.28;4.57;;;;;;;;;;5143859;27;20113;-63
2022/06/27 06:54:20;;;;;;;8.65;5.15;;;;;;;;;;5127208;27;20495;-64
2022/06/27 06:56:47;;;;;;;7.18;5.70;;;;;;;;;;5117490;27;20133;-64
2022/06/27 06:59:14;;;;;;;6.00;4.90;;;;;;;;;;5118974;27;20057;-64
2022/06/27 07:01:41;;;;;;;6.40;5.22;;;;;;;;;;5132403;27;20126;-63
2022/06/27 07:04:08;;;;;;;6.47;5.40;;;;;;;;;;5147397;27;20035;-63
2022/06/27 07:06:34;;;;;;;6.95;5.47;;;;;;;;;;5146508;27;20047;-64
2022/06/27 07:09:00;;;;;;;7.00;5.32;;;;;;;;;;5143018;27;20077;-63
2022/06/27 07:11:28;;;;;;;7.90;6.05;;;;;;;;;;5150663;27;20480;-63
2022/06/27 07:13:55;;;;;;;6.85;5.47;;;;;;;;;;5141512;27;20027;-63
2022/06/27 07:16:22;;;;;;;7.70;5.50;;;;;;;;;;5142769;27;20067;-63
2022/06/27 07:18:48;;;;;;;5.70;5.07;;;;;;;;;;5133131;27;20428;-63
2022/06/27 07:21:16;;;;;;;6.28;5.45;;;;;;;;;;5140937;27;20047;-64
2022/06/27 07:23:43;;;;;;;6.97;5.25;;;;;;;;;;5150024;27;20042;-63
2022/06/27 07:26:10;;;;;;;6.63;5.10;;;;;;;;;;5137682;27;20035;-63
2022/06/27 07:28:36;;;;;;;5.75;5.05;;;;;;;;;;5139932;27;20082;-64
2022/06/27 07:31:08;;;;;;;5.95;5.10;;;;;;;;;;5146617;27;20143;-64
2022/06/27 07:33:36;;;;;;;5.80;5.18;;;;;;;;;;5147513;27;20492;-63
2022/06/27 07:36:03;;;;;;;6.72;5.30;;;;;;;;;;5137404;27;20516;-63
2022/06/27 07:38:32;;;;;;;6.25;5.32;;;;;;;;;;5152292;27;20045;-64
2022/06/27 07:40:58;;;;;;;5.57;5.00;;;;;;;;;;5142021;27;20071;-64
2022/06/27 07:43:24;;;;;;;6.57;4.90;;;;;;;;;;5142871;27;20042;-64
2022/06/27 07:45:50;;;;;;;6.30;5.00;;;;;;;;;;5137712;27;20083;-64
2022/06/27 07:48:20;;;;;;;6.03;5.28;;;;;;;;;;5145584;27;20161;-64
2022/06/27 07:50:46;;;;;;;6.25;4.95;;;;;;;;;;5142220;27;20031;-64
2022/06/27 07:53:13;;;;;;;5.60;4.95;;;;;;;;;;5144571;27;20084;-64
2022/06/27 07:55:45;;;;;;;6.65;5.07;;;;;;;;;;5141370;27;20035;-64
2022/06/27 07:58:14;;;;;;;5.22;4.60;;;;;;;;;;5153340;27;20102;-64
2022/06/27 08:00:41;;;;;;;6.38;4.97;;;;;;;;;;5146604;27;20521;-64
2022/06/27 08:03:36;;;;;;;5.15;4.65;;;;;;;;;;5143581;27;20068;-64
2022/06/27 08:05:56;;;;;;;5.70;4.55;;;;;;;;;;5151783;27;20480;-64
2022/06/27 08:08:23;;;;;;;6.00;4.50;;;;;;;;;;5148581;27;20039;-64
2022/06/27 08:10:53;;;;;;;5.53;4.20;;;;;;;;;;5143692;27;20551;-64
2022/06/27 08:13:19;;;;;;;6.47;3.92;;;;;;;;;;5144426;27;20106;-64
2022/06/27 08:15:47;;;;;;;4.90;4.38;;;;;;;;;;5139771;27;20035;-64
2022/06/27 08:18:14;;;;;;;5.70;3.67;;;;;;;;;;5147578;27;20041;-64
2022/06/27 08:20:40;;;;;;;3.83;3.53;;;;;;;;;;5150355;27;20043;-63
2022/06/27 08:23:07;;;;;;;5.03;4.28;;;;;;;;;;5151039;27;20038;-64
2022/06/27 08:25:34;;;;;;;6.35;4.30;;;;;;;;;;5151370;27;20031;-63
2022/06/27 08:28:00;;;;;;;3.70;3.40;;;;;;;;;;5148132;27;20031;-63
2022/06/27 08:30:27;;;;;;;4.05;3.28;;;;;;;;;;5144669;27;20077;-63
2022/06/27 08:32:56;;;;;;;4.68;4.10;;;;;;;;;;5151267;27;20088;-63
2022/06/27 08:35:25;;;;;;;5.10;4.63;;;;;;;;;;5138054;27;20054;-62
2022/06/27 08:37:52;;;;;;;4.90;3.75;;;;;;;;;;5135055;27;20039;-63
2022/06/27 08:40:18;;;;;;;4.18;3.78;;;;;;;;;;5144145;27;20054;-63
2022/06/27 08:42:45;;;;;;;4.82;3.78;;;;;;;;;;5146309;27;20083;-63
2022/06/27 08:45:13;;;;;;;4.20;3.80;;;;;;;;;;5147621;27;21339;-63
2022/06/27 08:47:41;;;;;;;4.15;3.75;;;;;;;;;;5136030;27;20035;-64
2022/06/27 08:50:08;;;;;;;4.57;3.58;;;;;;;;;;5146086;27;20063;-63
2022/06/27 08:52:39;;;;;;;5.05;4.53;;;;;;;;;;5150541;27;20454;-63
2022/06/27 08:55:07;;;;;;;4.90;4.40;;;;;;;;;;5148611;27;20041;-63
2022/06/27 08:57:33;;;;;;;5.25;3.85;;;;;;;;;;5141810;27;20042;-63
2022/06/27 09:00:04;;;;;;;5.28;4.07;;;;;;;;;;5150122;27;20039;-63
2022/06/27 09:02:30;;;;;;;4.22;3.80;;;;;;;;;;5147211;27;20043;-63
2022/06/27 09:04:59;;;;;;;4.65;3.60;;;;;;;;;;5148255;27;20037;-63
2022/06/27 09:07:45;;;;;;;3.92;3.53;;;;;;;;;;5149898;27;20495;-63
2022/06/27 09:10:26;;;;;;;3.80;3.50;;;;;;;;;;5152358;27;20143;-62
2022/06/27 09:12:57;;;;;;;4.63;3.85;;;;;;;;;;5143015;27;20043;-62
2022/06/27 09:15:27;;;;;;;3.63;3.25;;;;;;;;;;5149552;27;20154;-62
2022/06/27 09:18:04;;;;;;;5.30;3.60;;;;;;;;;;5140928;27;20084;-62
2022/06/27 09:20:53;;;;;;;4.60;2.90;;;;;;;;;;5147430;27;20450;-62
2022/06/27 09:23:28;;;;;;;4.22;3.10;;;;;;;;;;5136238;27;20147;-62
2022/06/27 09:25:58;;;;;;;3.70;2.97;;;;;;;;;;5141333;27;20038;-64
2022/06/27 09:28:36;;;;;;;3.63;3.20;;;;;;;;;;5146292;27;20491;-64
2022/06/27 09:31:02;;;;;;;3.63;2.90;;;;;;;;;;5152721;27;20152;-63
2022/06/27 09:33:31;;;;;;;3.63;3.00;;;;;;;;;;5145444;27;20113;-64
2022/06/27 09:35:57;;;;;;;4.35;2.75;;;;;;;;;;5149583;27;20403;-63
2022/06/27 09:38:25;;;;;;;3.35;3.05;;;;;;;;;;5143203;27;20129;-63
2022/06/27 09:40:51;;;;;;;4.22;3.20;;;;;;;;;;5145496;27;20072;-63
2022/06/27 09:43:19;;;;;;;4.13;2.90;;;;;;;;;;5137219;27;20050;-64
2022/06/27 09:45:46;;;;;;;4.78;4.00;;;;;;;;;;5145782;27;20039;-63
2022/06/27 09:48:12;;;;;;;5.07;4.20;;;;;;;;;;5144453;27;20552;-63
2022/06/27 09:50:40;;;;;;;6.45;4.38;;;;;;;;;;5151375;27;20041;-63
2022/06/27 09:53:06;;;;;;;7.13;4.53;;;;;;;;;;5140593;27;20453;-63
2022/06/27 09:55:32;;;;;;;5.95;4.75;;;;;;;;;;5144284;27;20039;-64
2022/06/27 09:58:00;;;;;;;5.38;4.53;;;;;;;;;;5140621;27;20053;-63
2022/06/27 10:00:27;;;;;;;4.90;4.40;;;;;;;;;;5145692;27;20085;-64
2022/06/27 10:02:53;;;;;;;6.75;4.65;;;;;;;;;;5147515;27;20043;-64
2022/06/27 10:05:20;;;;;;;6.13;4.70;;;;;;;;;;5152209;27;20599;-64
2022/06/27 10:08:03;;;;;;;5.53;4.30;;;;;;;;;;5145229;27;20104;-64
2022/06/27 10:10:31;;;;;;;4.70;3.63;;;;;;;;;;5148377;27;20051;-64
2022/06/27 10:12:58;;;;;;;4.63;4.18;;;;;;;;;;5147507;27;20042;-64
2022/06/27 10:15:25;;;;;;;5.80;3.83;;;;;;;;;;5140551;27;20488;-64
2022/06/27 10:20:27;;;;;;;6.55;4.53;;;;;;;;;;5066924;28;20045;-64
2022/06/27 10:23:13;;;;;;;5.30;4.47;;;;;;;;;;5077367;28;20047;-64
2022/06/27 10:25:44;;;;;;;4.95;3.80;;;;;;;;;;5071817;28;20657;-64
2022/06/27 10:28:10;;;;;;;5.55;4.10;;;;;;;;;;5077745;28;20436;-65
2022/06/27 10:30:47;;;;;;;4.72;3.92;;;;;;;;;;5073004;28;20079;-65
2022/06/27 10:33:15;;;;;;;3.80;3.40;;;;;;;;;;5068435;28;20040;-64
2022/06/27 10:36:02;;;;;;;4.57;3.13;;;;;;;;;;5077503;28;20041;-65
2022/06/27 10:38:35;;;;;;;3.03;2.72;;;;;;;;;;5069288;28;20115;-65
2022/06/27 10:41:03;;;;;;;4.30;3.22;;;;;;;;;;5068511;28;20036;-64
2022/06/27 10:43:45;;;;;;;4.30;3.10;;;;;;;;;;5066941;28;20128;-65
2022/06/27 10:46:11;;;;;;;4.55;3.28;;;;;;;;;;5072795;28;20402;-65
2022/06/27 10:48:45;;;;;;;5.22;3.25;;;;;;;;;;5065314;28;20032;-64
2022/06/27 10:51:26;;;;;;;4.78;3.58;;;;;;;;;;5070039;28;20033;-64
2022/06/27 10:54:08;;;;;;;4.45;3.50;;;;;;;;;;5067077;28;20252;-65
2022/06/27 10:56:55;;;;;;;3.83;3.20;;;;;;;;;;5076330;28;20311;-65
2022/06/27 10:59:21;;;;;;;4.85;3.47;;;;;;;;;;5073477;28;20045;-65
2022/06/27 11:01:50;;;;;;;3.70;3.17;;;;;;;;;;5069048;28;20496;-65
2022/06/27 11:04:26;;;;;;;4.18;2.70;;;;;;;;;;5068183;28;20036;-65
2022/06/27 11:06:56;;;;;;;2.85;2.45;;;;;;;;;;5070378;28;20039;-65
2022/06/27 11:09:34;;;;;;;4.25;3.10;;;;;;;;;;5068844;28;20043;-65
2022/06/27 11:12:00;;;;;;;3.70;2.58;;;;;;;;;;5067719;28;20119;-65
2022/06/27 11:14:26;;;;;;;3.00;2.70;;;;;;;;;;5064836;28;20094;-64
2022/06/27 11:16:52;;;;;;;4.38;2.72;;;;;;;;;;5070477;28;20194;-64
2022/06/27 11:22:19;;;;;;;2.47;2.28;;;;;;;;;;5066794;28;20076;-65
2022/06/27 11:24:48;;;;;;;2.28;2.08;;;;;;;;;;5069187;28;20037;-64
2022/06/27 11:27:15;;;;;;;3.30;2.70;;;;;;;;;;5065709;28;20040;-64
2022/06/27 11:32:27;;;;;;;2.67;2.10;;;;;;;;;;5068255;28;20044;-64
2022/06/27 11:34:53;;;;;;;3.63;2.30;;;;;;;;;;5070960;28;20044;-64
2022/06/27 11:37:22;;;;;;;2.60;2.28;;;;;;;;;;5069784;28;20132;-64
2022/06/27 11:40:01;;;;;;;3.35;2.80;;;;;;;;;;5063221;28;20039;-64
2022/06/27 11:42:31;;;;;;;4.38;3.55;;;;;;;;;;5069305;28;20394;-65
2022/06/27 11:45:10;;;;;;;3.63;3.20;;;;;;;;;;5069114;28;20131;-64
2022/06/27 11:47:38;;;;;;;4.35;3.40;;;;;;;;;;5068464;28;20090;-64
2022/06/27 11:50:30;;;;;;;3.92;3.15;;;;;;;;;;5069233;28;20036;-64
2022/06/27 11:52:56;;;;;;;3.05;2.63;;;;;;;;;;5065784;28;20127;-64
2022/06/27 11:55:24;;;;;;;4.13;3.10;;;;;;;;;;5068368;28;20037;-64
2022/06/27 11:57:55;;;;;;;3.80;2.97;;;;;;;;;;5068311;28;20128;-64
2022/06/27 12:00:22;;;;;;;4.63;3.38;;;;;;;;;;5063989;28;20491;-65
2022/06/27 12:02:52;;;;;;;4.97;3.50;;;;;;;;;;5066894;28;20495;-64
2022/06/27 12:05:19;;;;;;;3.95;3.40;;;;;;;;;;5066921;28;20094;-65
2022/06/27 12:07:52;;;;;;;4.45;3.45;;;;;;;;;;5071999;28;20032;-64
2022/06/27 12:10:33;;;;;;;3.63;3.17;;;;;;;;;;5065004;28;20045;-64
2022/06/27 12:12:59;;;;;;;3.38;2.58;;;;;;;;;;5068262;28;20101;-64
2022/06/27 12:15:26;;;;;;;4.18;2.63;;;;;;;;;;5066908;28;20041;-65
2022/06/27 12:18:00;;;;;;;3.88;2.80;;;;;;;;;;5070296;28;20067;-65
2022/06/27 12:20:26;;;;;;;3.70;3.30;;;;;;;;;;5068206;28;20041;-64
2022/06/27 12:22:53;;;;;;;3.17;2.65;;;;;;;;;;5070995;28;20401;-65
2022/06/27 12:25:19;;;;;;;4.13;2.40;;;;;;;;;;5071076;28;20037;-65
2022/06/27 12:27:45;;;;;;;3.58;2.35;;;;;;;;;;5075289;28;20367;-64
2022/06/27 12:30:12;;;;;;;2.50;2.30;;;;;;;;;;5071169;28;20093;-64
2022/06/27 12:32:38;;;;;;;3.40;2.63;;;;;;;;;;5067302;28;20036;-64
2022/06/27 12:35:04;;;;;;;3.33;2.13;;;;;;;;;;5066291;28;20414;-64
2022/06/27 12:37:30;;;;;;;3.67;2.22;;;;;;;;;;5067206;28;20048;-64
2022/06/27 12:39:56;;;;;;;3.38;2.25;;;;;;;;;;5077450;28;20097;-65
2022/06/27 12:42:22;;;;;;;4.43;2.10;;;;;;;;;;5075531;28;20070;-65
2022/06/27 12:44:49;;;;;;;2.88;1.90;;;;;;;;;;5071433;28;20036;-65
2022/06/27 12:47:15;;;;;;;2.35;2.15;;;;;;;;;;5073590;28;20047;-64
2022/06/27 12:49:41;;;;;;;2.95;2.30;;;;;;;;;;5072270;28;20032;-64
2022/06/27 12:52:07;;;;;;;2.65;2.45;;;;;;;;;;5069141;28;20497;-64
2022/06/27 12:54:33;;;;;;;3.47;2.10;;;;;;;;;;5066238;28;20049;-64
2022/06/27 12:57:00;;;;;;;2.72;2.45;;;;;;;;;;5071045;28;20041;-64
2022/06/27 12:59:26;;;;;;;2.65;2.10;;;;;;;;;;5069728;28;20044;-64
2022/06/27 13:01:52;;;;;;;3.65;2.63;;;;;;;;;;5072603;28;20108;-64
2022/06/27 13:04:18;;;;;;;3.05;2.75;;;;;;;;;;5072577;28;20055;-64
2022/06/27 13:06:44;;;;;;;4.65;2.50;;;;;;;;;;5071547;28;20036;-64
2022/06/27 13:09:11;;;;;;;3.00;2.40;;;;;;;;;;5069712;28;20029;-64
2022/06/27 13:11:38;;;;;;;3.20;2.30;;;;;;;;;;5072890;28;20107;-64
2022/06/27 13:14:04;;;;;;;3.13;2.50;;;;;;;;;;5071766;28;20068;-64
2022/06/27 13:16:30;;;;;;;3.85;2.80;;;;;;;;;;5073420;28;20048;-64
2022/06/27 13:18:56;;;;;;;3.30;3.00;;;;;;;;;;5070975;28;20034;-64
2022/06/27 13:21:22;;;;;;;3.50;3.10;;;;;;;;;;5069688;28;20040;-64
2022/06/27 13:23:49;;;;;;;3.63;2.92;;;;;;;;;;5073396;28;20071;-64
2022/06/27 13:26:16;;;;;;;4.13;3.10;;;;;;;;;;5073337;28;20044;-64
2022/06/27 13:28:42;;;;;;;3.50;3.20;;;;;;;;;;5071037;28;20032;-63
2022/06/27 13:31:08;;;;;;;4.32;3.10;;;;;;;;;;5071020;28;20033;-64
2022/06/27 13:33:34;;;;;;;4.18;3.40;;;;;;;;;;5069955;28;20041;-63
2022/06/27 13:36:00;;;;;;;4.40;3.20;;;;;;;;;;5071113;28;20044;-64
2022/06/27 13:38:26;;;;;;;3.90;3.35;;;;;;;;;;5063039;28;20040;-64
2022/06/27 13:40:52;;;;;;;3.70;3.22;;;;;;;;;;5071539;28;20508;-64
2022/06/27 13:43:18;;;;;;;4.28;3.50;;;;;;;;;;5070887;28;20041;-63
2022/06/27 13:45:44;;;;;;;6.80;3.72;;;;;;;;;;5070924;28;20095;-63
2022/06/27 13:48:10;;;;;;;4.15;2.90;;;;;;;;;;5072932;28;20120;-63
2022/06/27 13:50:36;;;;;;;4.07;3.20;;;;;;;;;;5073268;28;20029;-63
2022/06/27 13:53:05;;;;;;;3.58;2.95;;;;;;;;;;5070684;28;20044;-63
2022/06/27 13:55:37;;;;;;;4.05;3.28;;;;;;;;;;5069035;28;20040;-63
2022/06/27 13:58:06;;;;;;;3.70;3.40;;;;;;;;;;5069814;28;20111;-63
2022/06/27 14:00:33;;;;;;;8.77;4.63;;;;;;;;;;5068285;28;20036;-63
2022/06/27 14:02:59;;;;;;;4.93;3.55;;;;;;;;;;5065283;28;20049;-63
2022/06/27 14:05:25;;;;;;;4.03;3.55;;;;;;;;;;5071663;28;20040;-63
2022/06/27 14:07:53;;;;;;;5.03;4.07;;;;;;;;;;5070010;28;20037;-63
2022/06/27 14:10:19;;;;;;;5.70;4.10;;;;;;;;;;5068636;28;20101;-63
2022/06/27 14:12:48;;;;;;;4.95;4.20;;;;;;;;;;5068432;28;20128;-63
2022/06/27 14:15:14;;;;;;;5.38;4.80;;;;;;;;;;5065833;28;20095;-63
2022/06/27 14:17:40;;;;;;;5.07;4.25;;;;;;;;;;5071324;28;20083;-63
2022/06/27 14:20:08;;;;;;;5.13;4.20;;;;;;;;;;5068386;28;20067;-63
2022/06/27 14:22:35;;;;;;;7.00;4.55;;;;;;;;;;5070182;28;20087;-64
2022/06/27 14:25:01;;;;;;;3.78;3.28;;;;;;;;;;5069116;28;20032;-64
2022/06/27 14:27:27;;;;;;;3.58;3.05;;;;;;;;;;5064963;28;20043;-65
2022/06/27 14:29:53;;;;;;;4.43;4.03;;;;;;;;;;5067686;28;20028;-64
2022/06/27 14:32:19;;;;;;;4.75;3.45;;;;;;;;;;5072003;28;20049;-64
2022/06/27 14:34:45;;;;;;;5.50;3.75;;;;;;;;;;5078194;28;20036;-65
2022/06/27 14:37:11;;;;;;;5.40;3.90;;;;;;;;;;5064139;28;20505;-64
2022/06/27 14:39:37;;;;;;;7.03;4.13;;;;;;;;;;5062384;28;20040;-65
2022/06/27 14:42:04;;;;;;;4.68;4.00;;;;;;;;;;5066305;28;20051;-64
2022/06/27 14:44:32;;;;;;;5.07;3.60;;;;;;;;;;5063868;28;20054;-64
2022/06/27 14:46:58;;;;;;;3.72;2.80;;;;;;;;;;5076561;28;20048;-64
2022/06/27 14:49:24;;;;;;;3.50;2.53;;;;;;;;;;5063466;28;20444;-65
2022/06/27 14:51:52;;;;;;;4.03;3.40;;;;;;;;;;5063831;28;20039;-64
2022/06/27 14:54:18;;;;;;;6.93;3.53;;;;;;;;;;5068435;28;20189;-64